Terminal Aerodrome Forecast
Issued by NWS Miami, FL

Home | Current Version | Previous Version | Text Only | Print | Product List | Glossary On
Versions: 1 2 3 4 5 6 7 8 9 10 11 12 13 14 15 16 17 18 19 20 21 22 23 24 25 26 27
000
FTUS42 KMFL 231720
TAFFLL
TAF
KFLL 231720Z 2318/2418 10010KT P6SM SHRA VCTS SCT030CB BKN045
      BKN200
     FM232000 10010KT P6SM VCSH SCT030 BKN100
     FM240200 VRB03KT P6SM FEW025
     FM241400 10006KT P6SM SCT025=

USA.gov is the U.S. government's official web portal to all federal, state and local government web resources and services.